Aérodrome :
LOGIN :

S'inscrire | Disclaimer

   EN    FR    IT 

 










Légende :    VFR   VFR Marginal   IFR   IFR Intensif   IFR Très Intensif
Visi : 
Plafond : 
>= 8 km
>= 3000ft
5 à 8 km
1000 à 3000 ft
1500m à 5 km
500 à 1000 ft
800 à 1500m
200 à 500 ft
< 800m
< 200 ft
Symboles :   Orages  Brouillard  Fortes neiges  Fortes précipitations  Vent > 20 kt
SIGMETs :   Divers  Orages  Givrage  Turbulence  Onde Orograph.  Cendres Volcan.






- Altitude de l'aérodrome : 364 ft


LFAQ - Albert Bray

DERNIER METAR :
  • 251730Z AUTO 27007KT 9999 SCT027 01/M01 Q1013 NOSIG

METARs EXPIRÉS :
  • 251700Z AUTO 28006KT 9999 FEW033 01/M01 Q1012 NOSIG
  • 251630Z AUTO 28007KT CAVOK 02/M01 Q1012 NOSIG
  • 251600Z AUTO 28008KT CAVOK 03/M01 Q1012 NOSIG
  • 251530Z AUTO 28007KT CAVOK 03/M01 Q1011 NOSIG
  • 251500Z AUTO 30009KT CAVOK 04/M01 Q1011 NOSIG

TAF TAF LFAQ
Valide du 25 à 15h jusqu'au 26 à 00h UTC


251400Z 2515/2524 28007KT CAVOK



MET'MAP, la Météo Aéronautique d'un coup d'oeil ! - Copyright ORBIFLY Décembre 2007 - Disclaimer

ORBIFLY MET'MAP TEAM :

Programmation & Développement : Alexandra Zaïnal
Sur une idée originale de : Baudouin d'Aumeries
Assistance à la programmation : Marc-Olivier Méhu
Soutien technique & logistique : Manuel Goepfert

Contact : metmap@orbifly.com




SOURCES & CREDITS :

   NOAA